createdAt,value
2022-11-09T00:00:53.384Z,13.40
2022-11-09T00:03:20.714Z,13.40
2022-11-09T00:05:58.392Z,13.40
2022-11-09T00:08:26.410Z,13.50
2022-11-09T00:10:53.781Z,13.50
2022-11-09T00:13:21.471Z,13.50
2022-11-09T00:15:48.823Z,13.40
2022-11-09T00:18:15.808Z,13.40
2022-11-09T00:20:47.605Z,13.40
2022-11-09T00:23:17.812Z,13.40
2022-11-09T00:25:45.289Z,13.50
2022-11-09T00:28:12.516Z,13.40
2022-11-09T00:30:40.360Z,13.40
2022-11-09T00:33:08.841Z,13.30
2022-11-09T00:35:38.717Z,13.30
2022-11-09T00:38:05.783Z,13.30
2022-11-09T00:40:33.624Z,13.40
2022-11-09T00:43:00.566Z,13.30
2022-11-09T00:45:27.499Z,13.30
2022-11-09T00:47:55.570Z,13.30
2022-11-09T00:50:22.730Z,13.30
2022-11-09T00:52:51.017Z,13.30
2022-11-09T00:55:21.081Z,13.30
2022-11-09T00:57:51.905Z,13.40
2022-11-09T01:00:23.792Z,13.30
2022-11-09T01:02:52.833Z,13.30
2022-11-09T01:05:20.676Z,13.30
2022-11-09T01:07:50.053Z,13.30
2022-11-09T01:10:17.145Z,13.30
2022-11-09T01:12:46.684Z,13.30
2022-11-09T01:15:14.994Z,13.30
2022-11-09T01:17:42.143Z,13.30
2022-11-09T01:20:09.731Z,13.30
2022-11-09T01:22:37.004Z,13.30
2022-11-09T01:25:04.339Z,13.30
2022-11-09T01:27:32.305Z,13.30
2022-11-09T01:29:59.280Z,13.30
2022-11-09T01:32:26.653Z,13.30
2022-11-09T01:34:53.715Z,13.30
2022-11-09T01:37:20.705Z,13.30
2022-11-09T01:39:47.748Z,13.30
2022-11-09T01:42:15.996Z,13.20
2022-11-09T01:44:43.102Z,13.30
2022-11-09T01:47:22.270Z,13.30
2022-11-09T01:49:58.328Z,13.30
2022-11-09T01:52:40.552Z,13.30
2022-11-09T01:55:16.613Z,13.30
2022-11-09T01:57:49.814Z,13.30
2022-11-09T02:00:17.998Z,13.30
2022-11-09T02:03:04.637Z,13.30
2022-11-09T02:05:35.008Z,13.30
2022-11-09T02:08:04.803Z,13.30
2022-11-09T02:11:09.899Z,13.30
2022-11-09T02:13:44.502Z,13.20
2022-11-09T02:16:13.276Z,13.20
2022-11-09T02:18:51.649Z,13.20
2022-11-09T02:21:19.785Z,13.20
2022-11-09T02:23:48.448Z,13.20
2022-11-09T02:26:24.803Z,13.20
2022-11-09T02:28:55.348Z,13.10
2022-11-09T02:31:28.285Z,13.10
2022-11-09T02:34:03.074Z,13.00
2022-11-09T02:36:30.053Z,13.00
2022-11-09T02:38:58.507Z,12.90
2022-11-09T02:41:26.445Z,12.90
2022-11-09T02:43:55.020Z,12.90
2022-11-09T02:46:25.273Z,12.80
2022-11-09T02:48:52.704Z,12.80
2022-11-09T02:51:19.811Z,12.80
2022-11-09T02:53:46.861Z,12.70
2022-11-09T02:56:14.184Z,12.80
2022-11-09T02:58:41.548Z,12.80
2022-11-09T03:01:08.884Z,12.90
2022-11-09T03:03:37.049Z,12.90
2022-11-09T03:06:05.594Z,12.90
2022-11-09T03:08:33.065Z,12.90
2022-11-09T03:11:01.095Z,13.00
2022-11-09T03:13:28.241Z,13.00
2022-11-09T03:15:57.556Z,13.00
2022-11-09T03:18:24.891Z,13.00
2022-11-09T03:20:51.932Z,13.10
2022-11-09T03:23:19.208Z,13.10
2022-11-09T03:25:46.526Z,13.10
2022-11-09T03:28:14.940Z,13.10
2022-11-09T03:30:42.033Z,13.10
2022-11-09T03:33:12.879Z,13.10
2022-11-09T03:35:41.405Z,13.10
2022-11-09T03:38:08.445Z,13.10
2022-11-09T03:40:36.488Z,13.10
2022-11-09T03:43:05.002Z,13.10
2022-11-09T03:45:32.172Z,13.10
2022-11-09T03:48:00.570Z,13.10
2022-11-09T03:50:29.186Z,13.00
2022-11-09T03:52:56.889Z,13.00
2022-11-09T03:55:25.118Z,13.00
2022-11-09T03:57:52.615Z,13.10
2022-11-09T04:00:21.771Z,13.10
2022-11-09T04:02:50.164Z,13.10
2022-11-09T04:05:17.364Z,13.10
2022-11-09T04:07:52.263Z,13.10
2022-11-09T04:10:20.159Z,13.20
2022-11-09T04:12:47.230Z,13.10
2022-11-09T04:15:15.083Z,13.20
2022-11-09T04:17:44.665Z,13.20
2022-11-09T04:20:12.344Z,13.20
2022-11-09T04:22:39.326Z,13.20
2022-11-09T04:25:06.812Z,13.20
2022-11-09T04:27:33.953Z,13.10
2022-11-09T04:30:01.066Z,13.10
2022-11-09T04:32:28.045Z,13.10
2022-11-09T04:34:55.009Z,13.10
2022-11-09T04:37:21.972Z,13.10
2022-11-09T04:39:48.959Z,13.10
2022-11-09T04:42:15.862Z,13.10
2022-11-09T04:44:43.750Z,13.10
2022-11-09T04:47:10.854Z,13.20
2022-11-09T04:49:38.451Z,13.20
2022-11-09T04:52:05.909Z,13.20
2022-11-09T04:54:32.892Z,13.20
2022-11-09T04:57:00.814Z,13.10
2022-11-09T04:59:28.044Z,13.10
2022-11-09T05:01:54.974Z,13.20
2022-11-09T05:04:22.006Z,13.10
2022-11-09T05:06:49.106Z,13.20
2022-11-09T05:09:16.086Z,13.20
2022-11-09T05:11:44.001Z,13.20
2022-11-09T05:14:11.454Z,13.20
2022-11-09T05:16:38.515Z,13.20
2022-11-09T05:19:05.512Z,13.20
2022-11-09T05:21:32.574Z,13.20
2022-11-09T05:23:59.595Z,13.20
2022-11-09T05:26:35.590Z,13.20
2022-11-09T05:29:06.341Z,13.20
2022-11-09T05:31:34.040Z,13.20
2022-11-09T05:34:01.490Z,13.20
2022-11-09T05:36:30.479Z,13.10
2022-11-09T05:38:58.087Z,13.20
2022-11-09T05:41:25.221Z,13.20
2022-11-09T05:43:52.439Z,13.10
2022-11-09T05:46:20.000Z,13.20
2022-11-09T05:48:47.276Z,13.20
2022-11-09T05:51:15.049Z,13.20
2022-11-09T05:53:46.110Z,13.20
2022-11-09T05:56:15.000Z,13.20
2022-11-09T05:58:42.738Z,13.20
2022-11-09T06:01:12.584Z,13.20
2022-11-09T06:03:40.514Z,13.20
2022-11-09T06:06:09.241Z,13.30
2022-11-09T06:08:37.427Z,13.30
2022-11-09T06:11:07.889Z,13.30
2022-11-09T06:13:35.254Z,13.30
2022-11-09T06:16:04.309Z,13.30
2022-11-09T06:18:32.788Z,13.30
2022-11-09T06:21:03.012Z,13.30
2022-11-09T06:23:30.309Z,13.30
2022-11-09T06:26:03.225Z,13.30
2022-11-09T06:28:30.378Z,13.30
2022-11-09T06:30:58.995Z,13.30
2022-11-09T06:33:26.293Z,13.30
2022-11-09T06:35:56.323Z,13.30
2022-11-09T06:38:26.382Z,13.30
2022-11-09T06:40:54.949Z,13.30
2022-11-09T06:43:22.563Z,13.30
2022-11-09T06:45:50.287Z,13.40
2022-11-09T06:48:17.842Z,13.30
2022-11-09T06:50:44.830Z,13.30
2022-11-09T06:53:14.026Z,13.30
2022-11-09T06:55:45.813Z,13.30
2022-11-09T06:58:16.403Z,13.30
2022-11-09T07:00:44.712Z,13.40
2022-11-09T07:03:22.314Z,13.50
2022-11-09T07:05:51.131Z,13.50
2022-11-09T07:08:18.947Z,13.60
2022-11-09T07:10:46.026Z,13.60
2022-11-09T07:13:13.241Z,13.70
2022-11-09T07:15:40.258Z,13.70
2022-11-09T07:18:10.948Z,13.70
2022-11-09T07:20:38.372Z,13.70
2022-11-09T07:23:05.398Z,13.70
2022-11-09T07:25:32.753Z,13.70
2022-11-09T07:28:08.596Z,13.70
2022-11-09T07:30:39.408Z,13.70
2022-11-09T07:33:20.579Z,13.70
2022-11-09T07:35:48.057Z,13.80
2022-11-09T07:38:19.715Z,13.90
2022-11-09T07:40:46.755Z,14.00
2022-11-09T07:43:13.757Z,14.20
2022-11-09T07:45:42.526Z,14.30
2022-11-09T07:48:10.966Z,14.30
2022-11-09T07:50:39.614Z,14.20
2022-11-09T07:53:07.535Z,14.10
2022-11-09T07:55:35.517Z,14.10
2022-11-09T07:58:08.366Z,14.10
2022-11-09T08:00:37.052Z,14.10
2022-11-09T08:03:04.633Z,14.10
2022-11-09T08:05:31.902Z,14.00
2022-11-09T08:08:01.366Z,14.00
2022-11-09T08:10:29.710Z,14.00
2022-11-09T08:12:59.476Z,14.00
2022-11-09T08:15:27.193Z,14.00
2022-11-09T08:17:54.603Z,14.00
2022-11-09T08:20:21.649Z,14.00
2022-11-09T08:22:48.642Z,14.10
2022-11-09T08:25:15.960Z,14.10
2022-11-09T08:27:43.535Z,14.20
2022-11-09T08:30:15.021Z,14.30
2022-11-09T08:32:43.065Z,14.30
2022-11-09T08:35:12.534Z,14.40
2022-11-09T08:37:39.896Z,14.40
2022-11-09T08:40:07.749Z,14.40
2022-11-09T08:42:34.667Z,14.50
2022-11-09T08:45:01.737Z,14.50
2022-11-09T08:47:29.330Z,14.60
2022-11-09T08:49:56.520Z,14.50
2022-11-09T08:52:23.787Z,14.50
2022-11-09T08:54:50.709Z,14.40
2022-11-09T08:57:19.132Z,14.40
2022-11-09T08:59:46.628Z,14.30
2022-11-09T09:02:14.724Z,14.20
2022-11-09T09:04:42.193Z,14.20
2022-11-09T09:07:09.552Z,14.20
2022-11-09T09:09:38.246Z,14.30
2022-11-09T09:12:09.510Z,14.40
2022-11-09T09:14:36.936Z,14.40
2022-11-09T09:17:04.163Z,14.50
2022-11-09T09:19:32.104Z,14.60
2022-11-09T09:22:01.334Z,14.60
2022-11-09T09:24:28.435Z,14.70
2022-11-09T09:26:55.524Z,14.80
2022-11-09T09:29:22.447Z,14.80
2022-11-09T09:31:50.418Z,14.90
2022-11-09T09:34:17.861Z,15.10
2022-11-09T09:36:47.873Z,15.50
2022-11-09T09:39:15.640Z,15.70
2022-11-09T09:41:55.594Z,15.80
2022-11-09T09:44:29.343Z,15.70
2022-11-09T09:47:15.430Z,15.60
2022-11-09T09:50:04.249Z,15.30
2022-11-09T09:52:33.999Z,15.10
2022-11-09T09:55:18.961Z,15.00
2022-11-09T09:57:51.422Z,14.90
2022-11-09T10:00:25.867Z,14.90
2022-11-09T10:02:53.631Z,14.90
2022-11-09T10:05:28.183Z,15.00
2022-11-09T10:08:15.437Z,15.10
2022-11-09T10:10:46.358Z,15.20
2022-11-09T10:13:28.653Z,15.20
2022-11-09T10:16:21.601Z,15.10
2022-11-09T10:18:57.084Z,15.00
2022-11-09T10:21:45.082Z,14.80
2022-11-09T10:24:23.788Z,14.60
2022-11-09T10:26:54.539Z,14.40
2022-11-09T10:29:23.794Z,14.30
2022-11-09T10:31:56.312Z,14.20
2022-11-09T10:34:33.350Z,14.20
2022-11-09T10:37:06.191Z,14.20
2022-11-09T10:39:46.707Z,14.20
2022-11-09T10:42:32.288Z,14.30
2022-11-09T10:45:27.383Z,14.30
2022-11-09T10:48:14.117Z,14.50
2022-11-09T10:50:59.962Z,14.50
2022-11-09T10:53:45.445Z,14.70
2022-11-09T10:57:05.008Z,14.90
2022-11-09T10:59:56.999Z,15.60
2022-11-09T11:02:44.698Z,16.90
2022-11-09T11:05:31.962Z,17.50
2022-11-09T11:08:25.683Z,17.60
2022-11-09T11:11:38.038Z,17.60
2022-11-09T11:14:26.987Z,17.50
2022-11-09T11:17:34.774Z,17.30
2022-11-09T11:20:26.916Z,17.10
2022-11-09T11:23:17.334Z,16.90
2022-11-09T11:26:33.865Z,16.70
2022-11-09T11:29:19.213Z,16.50
2022-11-09T11:32:08.919Z,16.30
2022-11-09T11:35:00.084Z,16.30
2022-11-09T11:38:10.901Z,16.30
2022-11-09T11:41:17.118Z,16.20
2022-11-09T11:44:41.063Z,16.10
2022-11-09T11:47:33.916Z,16.00
2022-11-09T11:50:20.556Z,15.90
2022-11-09T11:53:43.676Z,15.70
2022-11-09T11:56:43.222Z,15.60
2022-11-09T11:59:56.196Z,15.20
2022-11-09T12:03:16.625Z,15.10
2022-11-09T12:06:43.972Z,14.90
2022-11-09T12:10:11.499Z,14.80
2022-11-09T12:13:27.355Z,14.70
2022-11-09T12:16:31.250Z,14.70
2022-11-09T12:19:35.967Z,14.60
2022-11-09T12:22:45.580Z,14.60
2022-11-09T12:25:47.090Z,14.70
2022-11-09T12:29:00.418Z,14.70
2022-11-09T12:32:02.692Z,14.70
2022-11-09T12:35:09.927Z,14.70
2022-11-09T12:38:18.146Z,14.80
2022-11-09T12:41:16.336Z,14.70
2022-11-09T12:44:17.128Z,14.70
2022-11-09T12:47:22.484Z,14.70
2022-11-09T12:50:17.362Z,14.70
2022-11-09T12:53:04.300Z,14.60
2022-11-09T12:55:54.527Z,14.50
2022-11-09T12:58:40.304Z,14.50
2022-11-09T13:01:35.189Z,14.50
2022-11-09T13:04:23.193Z,14.50
2022-11-09T13:07:17.413Z,14.50
2022-11-09T13:10:03.442Z,14.50
2022-11-09T13:12:48.777Z,14.50
2022-11-09T13:15:35.197Z,14.50
2022-11-09T13:18:55.307Z,14.50
2022-11-09T13:21:40.749Z,14.60
2022-11-09T13:24:32.307Z,14.70
2022-11-09T13:27:37.964Z,14.70
2022-11-09T13:30:28.332Z,14.70
2022-11-09T13:33:23.098Z,14.80
2022-11-09T13:36:08.991Z,14.80
2022-11-09T13:39:24.138Z,14.80
2022-11-09T13:42:30.507Z,14.80
2022-11-09T13:45:29.787Z,14.80
2022-11-09T13:48:38.889Z,14.80
2022-11-09T13:51:36.465Z,14.80
2022-11-09T13:54:29.738Z,14.90
2022-11-09T13:57:16.552Z,14.90
2022-11-09T14:00:05.079Z,14.90
2022-11-09T14:03:12.989Z,14.90
2022-11-09T14:06:00.367Z,14.90
2022-11-09T14:08:46.956Z,14.80
2022-11-09T14:12:11.825Z,14.80
2022-11-09T14:15:30.204Z,14.70
2022-11-09T14:18:33.630Z,14.60
2022-11-09T14:21:34.032Z,14.60
2022-11-09T14:24:28.296Z,14.60
2022-11-09T14:27:17.712Z,14.60
2022-11-09T14:30:03.139Z,14.50
2022-11-09T14:32:56.449Z,14.50
2022-11-09T14:35:41.983Z,14.50
2022-11-09T14:38:35.151Z,14.40
2022-11-09T14:41:25.085Z,14.40
2022-11-09T14:44:22.925Z,14.50
2022-11-09T14:47:29.408Z,14.50
2022-11-09T14:50:24.910Z,14.50
2022-11-09T14:53:28.481Z,14.50
2022-11-09T14:56:18.513Z,14.50
2022-11-09T14:59:14.320Z,14.50
2022-11-09T15:02:20.094Z,14.50
2022-11-09T15:05:07.376Z,14.60
2022-11-09T15:07:53.433Z,14.50
2022-11-09T15:10:39.067Z,14.50
2022-11-09T15:13:29.431Z,14.50
2022-11-09T15:16:23.991Z,14.50
2022-11-09T15:19:31.575Z,14.50
2022-11-09T15:22:35.267Z,14.50
2022-11-09T15:25:39.266Z,14.50
2022-11-09T15:28:27.676Z,14.40
2022-11-09T15:31:16.394Z,14.40
2022-11-09T15:34:02.223Z,14.40
2022-11-09T15:36:56.645Z,14.40
2022-11-09T15:39:41.995Z,14.40
2022-11-09T15:42:27.563Z,14.30
2022-11-09T15:45:19.128Z,14.10
2022-11-09T15:48:04.883Z,14.00
2022-11-09T15:50:50.490Z,13.80
2022-11-09T15:53:35.731Z,13.80
2022-11-09T15:56:23.910Z,13.70
2022-11-09T15:59:25.084Z,13.70
2022-11-09T16:02:12.047Z,13.70
2022-11-09T16:04:57.250Z,13.60
2022-11-09T16:07:50.292Z,13.60
2022-11-09T16:10:39.868Z,13.60
2022-11-09T16:13:25.377Z,13.70
2022-11-09T16:16:13.173Z,13.70
2022-11-09T16:18:59.370Z,13.70
2022-11-09T16:21:44.610Z,13.80
2022-11-09T16:24:30.366Z,13.80
2022-11-09T16:27:35.225Z,13.80
2022-11-09T16:30:21.743Z,13.80
2022-11-09T16:33:07.836Z,13.80
2022-11-09T16:35:55.050Z,13.80
2022-11-09T16:38:46.310Z,13.80
2022-11-09T16:41:31.726Z,13.80
2022-11-09T16:44:20.850Z,13.80
2022-11-09T16:47:09.733Z,13.80
2022-11-09T16:49:55.239Z,13.80
2022-11-09T16:52:41.166Z,13.80
2022-11-09T16:55:26.962Z,13.90
2022-11-09T16:58:12.756Z,13.90
2022-11-09T17:01:16.375Z,13.90
2022-11-09T17:04:03.717Z,13.90
2022-11-09T17:06:50.308Z,13.90
2022-11-09T17:09:36.035Z,13.90
2022-11-09T17:12:21.363Z,13.90
2022-11-09T17:15:07.434Z,13.90
2022-11-09T17:17:52.726Z,14.00
2022-11-09T17:20:46.299Z,14.00
2022-11-09T17:23:32.178Z,14.00
2022-11-09T17:26:19.207Z,13.90
2022-11-09T17:29:05.300Z,13.90
2022-11-09T17:31:50.561Z,13.80
2022-11-09T17:34:36.324Z,13.70
2022-11-09T17:37:21.961Z,13.50
2022-11-09T17:40:07.680Z,13.40
2022-11-09T17:42:53.007Z,13.20
2022-11-09T17:45:38.679Z,13.10
2022-11-09T17:48:24.148Z,13.00
2022-11-09T17:51:10.715Z,13.00
2022-11-09T17:53:56.176Z,12.90
2022-11-09T18:09:39.133Z,12.80
2022-11-09T18:12:10.428Z,13.60
2022-11-09T18:14:56.100Z,13.40
2022-11-09T18:17:41.205Z,13.30
2022-11-09T18:20:27.010Z,13.20
2022-11-09T18:23:13.054Z,13.10
2022-11-09T18:25:59.204Z,13.00
2022-11-09T18:28:44.941Z,12.90
2022-11-09T18:31:30.307Z,12.80
2022-11-09T18:34:15.918Z,12.80
2022-11-09T18:37:01.192Z,12.80
2022-11-09T18:39:46.731Z,12.80
2022-11-09T18:42:32.380Z,12.80
2022-11-09T18:45:18.099Z,12.90
2022-11-09T18:48:03.415Z,12.90
2022-11-09T18:50:53.287Z,13.00
2022-11-09T18:53:41.518Z,13.00
2022-11-09T18:56:26.949Z,13.00
2022-11-09T18:59:12.869Z,13.00
2022-11-09T19:01:58.113Z,13.10
2022-11-09T19:04:44.889Z,13.10
2022-11-09T19:07:30.346Z,13.10
2022-11-09T19:10:16.295Z,13.10
2022-11-09T19:13:02.247Z,13.10
2022-11-09T19:15:47.613Z,13.20
2022-11-09T19:18:33.185Z,13.20
2022-11-09T19:21:24.775Z,13.20
2022-11-09T19:24:15.409Z,13.30
2022-11-09T19:27:01.576Z,13.20
2022-11-09T19:29:47.822Z,13.20
2022-11-09T19:32:33.260Z,13.20
2022-11-09T19:35:24.840Z,13.20
2022-11-09T19:38:12.099Z,13.20
2022-11-09T19:40:57.504Z,13.30
2022-11-09T19:43:42.972Z,13.30
2022-11-09T19:46:33.180Z,13.30
2022-11-09T19:49:18.519Z,13.30
2022-11-09T19:52:04.311Z,13.30
2022-11-09T19:54:49.465Z,13.30
2022-11-09T19:57:35.354Z,13.30
2022-11-09T20:00:21.502Z,13.40
2022-11-09T20:03:06.904Z,13.40
2022-11-09T20:05:55.888Z,13.40
2022-11-09T20:08:41.426Z,13.40
2022-11-09T20:11:46.912Z,13.40
2022-11-09T20:14:32.440Z,13.40
2022-11-09T20:17:17.965Z,13.40
2022-11-09T20:20:03.670Z,13.40
2022-11-09T20:22:49.411Z,13.40
2022-11-09T20:25:34.994Z,13.40
2022-11-09T20:28:21.018Z,13.40
2022-11-09T20:31:19.695Z,13.40
2022-11-09T20:34:06.165Z,13.40
2022-11-09T20:36:52.060Z,13.40
2022-11-09T20:39:40.659Z,13.40
2022-11-09T20:42:26.429Z,13.40
2022-11-09T20:45:11.804Z,13.40
2022-11-09T20:48:10.452Z,13.50
2022-11-09T20:51:08.000Z,13.40
2022-11-09T20:53:53.348Z,13.50
2022-11-09T20:56:39.126Z,13.50
2022-11-09T20:59:24.280Z,13.50
2022-11-09T21:02:14.828Z,13.50
2022-11-09T21:05:00.935Z,13.50
2022-11-09T21:07:46.364Z,13.50
2022-11-09T21:10:31.807Z,13.50
2022-11-09T21:13:17.760Z,13.50
2022-11-09T21:16:11.838Z,13.50
2022-11-09T21:18:57.420Z,13.50
2022-11-09T21:21:43.081Z,13.50
2022-11-09T21:24:47.626Z,13.50
2022-11-09T21:27:51.707Z,13.60
2022-11-09T21:30:37.301Z,13.50
2022-11-09T21:33:23.236Z,13.60
2022-11-09T21:36:11.012Z,13.60
2022-11-09T21:38:56.303Z,13.60
2022-11-09T21:41:42.402Z,13.60
2022-11-09T21:44:29.282Z,13.60
2022-11-09T21:47:15.057Z,13.60
2022-11-09T21:50:00.325Z,13.60
2022-11-09T21:52:45.813Z,13.60
2022-11-09T21:55:31.015Z,13.60
2022-11-09T21:58:16.597Z,13.70
2022-11-09T22:01:03.689Z,13.70
2022-11-09T22:03:50.149Z,13.70
2022-11-09T22:06:40.597Z,13.60
2022-11-09T22:09:29.644Z,13.60
2022-11-09T22:12:39.732Z,13.60
2022-11-09T22:15:43.768Z,13.60
2022-11-09T22:18:50.959Z,13.60
2022-11-09T22:21:36.632Z,13.60
2022-11-09T22:24:21.944Z,13.60
2022-11-09T22:27:07.653Z,13.60
2022-11-09T22:29:53.022Z,13.60
2022-11-09T22:32:38.487Z,13.60
2022-11-09T22:35:24.149Z,13.60
2022-11-09T22:38:09.709Z,13.60
2022-11-09T22:41:03.736Z,13.60
2022-11-09T22:43:49.192Z,13.60
2022-11-09T22:46:34.447Z,13.60
2022-11-09T22:49:20.192Z,13.60
2022-11-09T22:52:05.502Z,13.60
2022-11-09T22:54:51.121Z,13.70
2022-11-09T22:57:37.911Z,13.70
2022-11-09T23:00:23.456Z,13.70
2022-11-09T23:03:08.832Z,13.70
2022-11-09T23:06:01.591Z,13.70
2022-11-09T23:08:47.444Z,13.70
2022-11-09T23:11:33.056Z,13.70
2022-11-09T23:14:38.186Z,13.70
2022-11-09T23:17:41.925Z,13.70
2022-11-09T23:20:32.696Z,13.80
2022-11-09T23:23:21.127Z,13.70
2022-11-09T23:26:07.954Z,13.80
2022-11-09T23:28:54.230Z,13.80
2022-11-09T23:31:39.771Z,13.70
2022-11-09T23:34:25.335Z,13.80
2022-11-09T23:37:10.755Z,13.80
2022-11-09T23:39:56.460Z,13.70
2022-11-09T23:42:41.755Z,13.80
2022-11-09T23:45:27.766Z,13.80
2022-11-09T23:48:16.628Z,13.70
2022-11-09T23:51:03.619Z,13.80
2022-11-09T23:53:48.876Z,13.80
2022-11-09T23:56:34.459Z,13.80
2022-11-09T23:59:19.924Z,13.80
